sensor_id;sensor_type;location;lat;lon;timestamp;P1;durP1;ratioP1;P2;durP2;ratioP2
13807;SDS011;40769;51.512;5.494;2023-07-28T00:02:09;3.70;;;3.40;;
13807;SDS011;40769;51.512;5.494;2023-07-28T00:04:35;4.40;;;3.85;;
13807;SDS011;40769;51.512;5.494;2023-07-28T00:07:02;3.70;;;3.40;;
13807;SDS011;40769;51.512;5.494;2023-07-28T00:09:29;3.67;;;3.40;;
13807;SDS011;40769;51.512;5.494;2023-07-28T00:11:55;3.75;;;3.50;;
13807;SDS011;40769;51.512;5.494;2023-07-28T00:14:25;3.55;;;3.30;;
13807;SDS011;40769;51.512;5.494;2023-07-28T00:16:55;3.70;;;3.40;;
13807;SDS011;40769;51.512;5.494;2023-07-28T00:19:22;4.30;;;3.90;;
13807;SDS011;40769;51.512;5.494;2023-07-28T00:21:48;4.32;;;3.92;;
13807;SDS011;40769;51.512;5.494;2023-07-28T00:24:15;3.85;;;3.55;;
13807;SDS011;40769;51.512;5.494;2023-07-28T00:26:42;4.50;;;4.15;;
13807;SDS011;40769;51.512;5.494;2023-07-28T00:29:08;3.85;;;3.55;;
13807;SDS011;40769;51.512;5.494;2023-07-28T00:31:34;3.92;;;3.63;;
13807;SDS011;40769;51.512;5.494;2023-07-28T00:34:01;3.17;;;2.97;;
13807;SDS011;40769;51.512;5.494;2023-07-28T00:36:27;4.38;;;4.07;;
13807;SDS011;40769;51.512;5.494;2023-07-28T00:38:53;4.00;;;3.70;;
13807;SDS011;40769;51.512;5.494;2023-07-28T00:41:19;4.93;;;4.53;;
13807;SDS011;40769;51.512;5.494;2023-07-28T00:43:45;4.53;;;4.20;;
13807;SDS011;40769;51.512;5.494;2023-07-28T00:46:10;5.07;;;4.68;;
13807;SDS011;40769;51.512;5.494;2023-07-28T00:48:37;5.28;;;4.93;;
13807;SDS011;40769;51.512;5.494;2023-07-28T00:51:03;4.78;;;4.38;;
13807;SDS011;40769;51.512;5.494;2023-07-28T00:53:29;5.65;;;5.25;;
13807;SDS011;40769;51.512;5.494;2023-07-28T00:55:55;5.82;;;5.43;;
13807;SDS011;40769;51.512;5.494;2023-07-28T00:58:21;5.70;;;5.20;;
13807;SDS011;40769;51.512;5.494;2023-07-28T01:00:47;5.85;;;5.45;;
13807;SDS011;40769;51.512;5.494;2023-07-28T01:03:14;5.63;;;5.22;;
13807;SDS011;40769;51.512;5.494;2023-07-28T01:08:39;5.28;;;4.88;;
13807;SDS011;40769;51.512;5.494;2023-07-28T01:11:12;5.45;;;5.05;;
13807;SDS011;40769;51.512;5.494;2023-07-28T01:13:39;5.78;;;5.28;;
13807;SDS011;40769;51.512;5.494;2023-07-28T01:16:05;4.82;;;4.43;;
13807;SDS011;40769;51.512;5.494;2023-07-28T01:18:31;5.57;;;5.18;;
13807;SDS011;40769;51.512;5.494;2023-07-28T01:20:57;5.13;;;4.72;;
13807;SDS011;40769;51.512;5.494;2023-07-28T01:26:33;4.47;;;4.13;;
13807;SDS011;40769;51.512;5.494;2023-07-28T01:29:01;4.75;;;4.35;;
13807;SDS011;40769;51.512;5.494;2023-07-28T01:31:31;4.63;;;4.32;;
13807;SDS011;40769;51.512;5.494;2023-07-28T01:33:56;4.22;;;3.92;;
13807;SDS011;40769;51.512;5.494;2023-07-28T01:36:22;4.68;;;4.28;;
13807;SDS011;40769;51.512;5.494;2023-07-28T01:38:48;3.78;;;3.50;;
13807;SDS011;40769;51.512;5.494;2023-07-28T01:41:13;4.43;;;4.13;;
13807;SDS011;40769;51.512;5.494;2023-07-28T01:43:39;4.55;;;4.20;;
13807;SDS011;40769;51.512;5.494;2023-07-28T01:46:05;3.97;;;3.67;;
13807;SDS011;40769;51.512;5.494;2023-07-28T01:48:30;3.60;;;3.30;;
13807;SDS011;40769;51.512;5.494;2023-07-28T01:50:56;4.35;;;4.05;;
13807;SDS011;40769;51.512;5.494;2023-07-28T01:53:22;3.83;;;3.53;;
13807;SDS011;40769;51.512;5.494;2023-07-28T01:55:49;4.07;;;3.78;;
13807;SDS011;40769;51.512;5.494;2023-07-28T01:58:14;4.43;;;4.13;;
13807;SDS011;40769;51.512;5.494;2023-07-28T02:00:40;4.75;;;4.35;;
13807;SDS011;40769;51.512;5.494;2023-07-28T02:03:06;3.70;;;3.40;;
13807;SDS011;40769;51.512;5.494;2023-07-28T02:05:32;5.70;;;4.75;;
13807;SDS011;40769;51.512;5.494;2023-07-28T02:07:58;5.28;;;4.88;;
13807;SDS011;40769;51.512;5.494;2023-07-28T02:10:23;4.68;;;4.30;;
13807;SDS011;40769;51.512;5.494;2023-07-28T02:12:51;4.78;;;4.38;;
13807;SDS011;40769;51.512;5.494;2023-07-28T02:15:16;5.25;;;4.85;;
13807;SDS011;40769;51.512;5.494;2023-07-28T02:17:42;5.93;;;5.43;;
13807;SDS011;40769;51.512;5.494;2023-07-28T02:20:08;5.97;;;5.47;;
13807;SDS011;40769;51.512;5.494;2023-07-28T02:22:41;6.38;;;5.82;;
13807;SDS011;40769;51.512;5.494;2023-07-28T02:25:07;7.35;;;6.72;;
13807;SDS011;40769;51.512;5.494;2023-07-28T02:27:33;6.10;;;5.60;;
13807;SDS011;40769;51.512;5.494;2023-07-28T02:29:59;7.20;;;6.60;;
13807;SDS011;40769;51.512;5.494;2023-07-28T02:32:25;5.75;;;5.25;;
13807;SDS011;40769;51.512;5.494;2023-07-28T02:34:51;7.03;;;6.43;;
13807;SDS011;40769;51.512;5.494;2023-07-28T02:37:17;7.00;;;6.40;;
13807;SDS011;40769;51.512;5.494;2023-07-28T02:39:43;7.57;;;6.88;;
13807;SDS011;40769;51.512;5.494;2023-07-28T02:42:08;8.38;;;7.68;;
13807;SDS011;40769;51.512;5.494;2023-07-28T02:44:34;8.05;;;7.35;;
13807;SDS011;40769;51.512;5.494;2023-07-28T02:47:00;5.47;;;4.97;;
13807;SDS011;40769;51.512;5.494;2023-07-28T02:49:26;7.43;;;6.72;;
13807;SDS011;40769;51.512;5.494;2023-07-28T02:51:51;8.20;;;7.50;;
13807;SDS011;40769;51.512;5.494;2023-07-28T02:54:17;8.00;;;7.30;;
13807;SDS011;40769;51.512;5.494;2023-07-28T02:56:42;8.23;;;7.43;;
13807;SDS011;40769;51.512;5.494;2023-07-28T02:59:08;8.23;;;7.53;;
13807;SDS011;40769;51.512;5.494;2023-07-28T03:01:34;8.82;;;8.02;;
13807;SDS011;40769;51.512;5.494;2023-07-28T03:04:03;8.98;;;8.18;;
13807;SDS011;40769;51.512;5.494;2023-07-28T03:06:29;8.20;;;7.50;;
13807;SDS011;40769;51.512;5.494;2023-07-28T03:08:54;9.15;;;8.35;;
13807;SDS011;40769;51.512;5.494;2023-07-28T03:11:21;9.90;;;9.00;;
13807;SDS011;40769;51.512;5.494;2023-07-28T03:13:46;9.50;;;8.60;;
13807;SDS011;40769;51.512;5.494;2023-07-28T03:16:12;9.95;;;8.98;;
13807;SDS011;40769;51.512;5.494;2023-07-28T03:18:37;9.98;;;9.07;;
13807;SDS011;40769;51.512;5.494;2023-07-28T03:21:03;9.38;;;8.48;;
13807;SDS011;40769;51.512;5.494;2023-07-28T03:23:29;7.25;;;6.57;;
13807;SDS011;40769;51.512;5.494;2023-07-28T03:25:55;9.38;;;8.48;;
13807;SDS011;40769;51.512;5.494;2023-07-28T03:28:20;9.32;;;8.48;;
13807;SDS011;40769;51.512;5.494;2023-07-28T03:30:46;9.02;;;8.20;;
13807;SDS011;40769;51.512;5.494;2023-07-28T03:33:12;9.40;;;8.40;;
13807;SDS011;40769;51.512;5.494;2023-07-28T03:35:37;10.25;;;9.25;;
13807;SDS011;40769;51.512;5.494;2023-07-28T03:38:03;10.43;;;9.25;;
13807;SDS011;40769;51.512;5.494;2023-07-28T03:40:29;11.88;;;9.68;;
13807;SDS011;40769;51.512;5.494;2023-07-28T03:42:55;11.15;;;10.05;;
13807;SDS011;40769;51.512;5.494;2023-07-28T03:45:22;11.98;;;10.50;;
13807;SDS011;40769;51.512;5.494;2023-07-28T03:47:48;7.93;;;7.13;;
13807;SDS011;40769;51.512;5.494;2023-07-28T03:50:13;9.15;;;8.02;;
13807;SDS011;40769;51.512;5.494;2023-07-28T03:52:39;10.68;;;9.50;;
13807;SDS011;40769;51.512;5.494;2023-07-28T03:55:05;11.60;;;10.40;;
13807;SDS011;40769;51.512;5.494;2023-07-28T03:57:30;8.88;;;8.07;;
13807;SDS011;40769;51.512;5.494;2023-07-28T03:59:56;11.48;;;10.32;;
13807;SDS011;40769;51.512;5.494;2023-07-28T04:02:22;12.70;;;9.43;;
13807;SDS011;40769;51.512;5.494;2023-07-28T04:04:52;9.98;;;8.98;;
13807;SDS011;40769;51.512;5.494;2023-07-28T04:07:21;12.55;;;11.35;;
13807;SDS011;40769;51.512;5.494;2023-07-28T04:09:47;11.25;;;9.48;;
13807;SDS011;40769;51.512;5.494;2023-07-28T04:12:12;10.45;;;9.45;;
13807;SDS011;40769;51.512;5.494;2023-07-28T04:14:38;11.75;;;10.63;;
13807;SDS011;40769;51.512;5.494;2023-07-28T04:17:04;9.73;;;8.73;;
13807;SDS011;40769;51.512;5.494;2023-07-28T04:19:30;9.77;;;8.85;;
13807;SDS011;40769;51.512;5.494;2023-07-28T04:21:59;10.70;;;9.70;;
13807;SDS011;40769;51.512;5.494;2023-07-28T04:24:26;11.32;;;9.77;;
13807;SDS011;40769;51.512;5.494;2023-07-28T04:26:52;9.93;;;9.00;;
13807;SDS011;40769;51.512;5.494;2023-07-28T04:29:18;11.55;;;10.45;;
13807;SDS011;40769;51.512;5.494;2023-07-28T04:31:43;11.30;;;10.00;;
13807;SDS011;40769;51.512;5.494;2023-07-28T04:34:09;10.77;;;9.68;;
13807;SDS011;40769;51.512;5.494;2023-07-28T04:36:35;9.43;;;8.50;;
13807;SDS011;40769;51.512;5.494;2023-07-28T04:39:00;10.48;;;9.50;;
13807;SDS011;40769;51.512;5.494;2023-07-28T04:41:26;9.45;;;8.05;;
13807;SDS011;40769;51.512;5.494;2023-07-28T04:43:52;10.55;;;9.27;;
13807;SDS011;40769;51.512;5.494;2023-07-28T04:46:18;9.38;;;8.40;;
13807;SDS011;40769;51.512;5.494;2023-07-28T04:48:44;7.15;;;6.47;;
13807;SDS011;40769;51.512;5.494;2023-07-28T04:51:10;9.45;;;8.63;;
13807;SDS011;40769;51.512;5.494;2023-07-28T04:53:36;10.98;;;9.98;;
13807;SDS011;40769;51.512;5.494;2023-07-28T04:56:01;8.63;;;7.93;;
13807;SDS011;40769;51.512;5.494;2023-07-28T04:58:28;10.55;;;9.55;;
13807;SDS011;40769;51.512;5.494;2023-07-28T05:00:56;11.68;;;10.55;;
13807;SDS011;40769;51.512;5.494;2023-07-28T05:03:22;10.05;;;9.15;;
13807;SDS011;40769;51.512;5.494;2023-07-28T05:05:48;11.25;;;9.52;;
13807;SDS011;40769;51.512;5.494;2023-07-28T05:08:14;9.88;;;8.88;;
13807;SDS011;40769;51.512;5.494;2023-07-28T05:10:40;12.77;;;10.40;;
13807;SDS011;40769;51.512;5.494;2023-07-28T05:13:09;11.45;;;10.25;;
13807;SDS011;40769;51.512;5.494;2023-07-28T05:15:35;10.23;;;9.23;;
13807;SDS011;40769;51.512;5.494;2023-07-28T05:18:01;10.23;;;9.27;;
13807;SDS011;40769;51.512;5.494;2023-07-28T05:20:26;9.80;;;8.82;;
13807;SDS011;40769;51.512;5.494;2023-07-28T05:22:53;10.23;;;9.23;;
13807;SDS011;40769;51.512;5.494;2023-07-28T05:25:18;10.52;;;9.43;;
13807;SDS011;40769;51.512;5.494;2023-07-28T05:27:44;11.75;;;10.55;;
13807;SDS011;40769;51.512;5.494;2023-07-28T05:30:09;13.48;;;10.40;;
13807;SDS011;40769;51.512;5.494;2023-07-28T05:32:35;11.68;;;10.57;;
13807;SDS011;40769;51.512;5.494;2023-07-28T05:35:01;12.00;;;10.82;;
13807;SDS011;40769;51.512;5.494;2023-07-28T05:37:27;12.88;;;11.57;;
13807;SDS011;40769;51.512;5.494;2023-07-28T05:39:52;11.63;;;10.50;;
13807;SDS011;40769;51.512;5.494;2023-07-28T05:42:18;12.45;;;11.25;;
13807;SDS011;40769;51.512;5.494;2023-07-28T05:44:44;12.20;;;10.95;;
13807;SDS011;40769;51.512;5.494;2023-07-28T05:47:09;13.52;;;11.80;;
13807;SDS011;40769;51.512;5.494;2023-07-28T05:49:36;14.70;;;13.27;;
13807;SDS011;40769;51.512;5.494;2023-07-28T05:52:02;16.10;;;14.57;;
13807;SDS011;40769;51.512;5.494;2023-07-28T05:54:28;16.60;;;15.00;;
13807;SDS011;40769;51.512;5.494;2023-07-28T05:56:54;18.52;;;16.63;;
13807;SDS011;40769;51.512;5.494;2023-07-28T05:59:20;18.05;;;16.25;;
13807;SDS011;40769;51.512;5.494;2023-07-28T06:01:46;15.82;;;14.23;;
13807;SDS011;40769;51.512;5.494;2023-07-28T06:04:12;19.80;;;17.60;;
13807;SDS011;40769;51.512;5.494;2023-07-28T06:06:37;20.75;;;18.55;;
13807;SDS011;40769;51.512;5.494;2023-07-28T06:09:03;21.33;;;19.13;;
13807;SDS011;40769;51.512;5.494;2023-07-28T06:11:29;22.42;;;20.10;;
13807;SDS011;40769;51.512;5.494;2023-07-28T06:13:55;21.30;;;19.10;;
13807;SDS011;40769;51.512;5.494;2023-07-28T06:16:20;23.90;;;21.13;;
13807;SDS011;40769;51.512;5.494;2023-07-28T06:18:46;23.92;;;21.38;;
13807;SDS011;40769;51.512;5.494;2023-07-28T06:21:12;22.25;;;19.85;;
13807;SDS011;40769;51.512;5.494;2023-07-28T06:23:37;19.35;;;17.25;;
13807;SDS011;40769;51.512;5.494;2023-07-28T06:26:04;19.55;;;17.40;;
13807;SDS011;40769;51.512;5.494;2023-07-28T06:28:29;17.08;;;14.60;;
13807;SDS011;40769;51.512;5.494;2023-07-28T06:30:55;17.45;;;15.63;;
13807;SDS011;40769;51.512;5.494;2023-07-28T06:33:22;16.10;;;14.40;;
13807;SDS011;40769;51.512;5.494;2023-07-28T06:35:47;18.17;;;16.23;;
13807;SDS011;40769;51.512;5.494;2023-07-28T06:38:13;18.35;;;15.60;;
13807;SDS011;40769;51.512;5.494;2023-07-28T06:40:39;18.60;;;15.73;;
13807;SDS011;40769;51.512;5.494;2023-07-28T06:43:04;16.45;;;14.60;;
13807;SDS011;40769;51.512;5.494;2023-07-28T06:45:32;15.88;;;14.15;;
13807;SDS011;40769;51.512;5.494;2023-07-28T06:47:58;16.42;;;13.68;;
13807;SDS011;40769;51.512;5.494;2023-07-28T06:50:23;14.60;;;12.50;;
13807;SDS011;40769;51.512;5.494;2023-07-28T06:52:49;14.50;;;12.63;;
13807;SDS011;40769;51.512;5.494;2023-07-28T06:55:16;13.15;;;11.75;;
13807;SDS011;40769;51.512;5.494;2023-07-28T06:57:41;13.88;;;12.40;;
13807;SDS011;40769;51.512;5.494;2023-07-28T07:00:07;14.77;;;12.60;;
13807;SDS011;40769;51.512;5.494;2023-07-28T07:02:36;13.95;;;12.07;;
13807;SDS011;40769;51.512;5.494;2023-07-28T07:05:02;12.63;;;11.27;;
13807;SDS011;40769;51.512;5.494;2023-07-28T07:07:29;13.20;;;11.45;;
13807;SDS011;40769;51.512;5.494;2023-07-28T07:09:57;11.98;;;10.77;;
13807;SDS011;40769;51.512;5.494;2023-07-28T07:12:22;10.05;;;9.05;;
13807;SDS011;40769;51.512;5.494;2023-07-28T07:14:48;10.02;;;9.00;;
13807;SDS011;40769;51.512;5.494;2023-07-28T07:17:14;9.45;;;8.55;;
13807;SDS011;40769;51.512;5.494;2023-07-28T07:19:40;9.95;;;9.00;;
13807;SDS011;40769;51.512;5.494;2023-07-28T07:22:05;8.70;;;7.90;;
13807;SDS011;40769;51.512;5.494;2023-07-28T07:24:31;9.75;;;8.85;;
13807;SDS011;40769;51.512;5.494;2023-07-28T07:26:58;9.70;;;8.80;;
13807;SDS011;40769;51.512;5.494;2023-07-28T07:29:23;9.50;;;8.52;;
13807;SDS011;40769;51.512;5.494;2023-07-28T07:31:49;9.30;;;8.40;;
13807;SDS011;40769;51.512;5.494;2023-07-28T07:34:20;8.50;;;7.70;;
13807;SDS011;40769;51.512;5.494;2023-07-28T07:36:45;8.35;;;7.45;;
13807;SDS011;40769;51.512;5.494;2023-07-28T07:39:11;10.05;;;8.65;;
13807;SDS011;40769;51.512;5.494;2023-07-28T07:41:37;9.35;;;8.35;;
13807;SDS011;40769;51.512;5.494;2023-07-28T07:44:03;8.65;;;7.85;;
13807;SDS011;40769;51.512;5.494;2023-07-28T07:46:29;9.02;;;8.15;;
13807;SDS011;40769;51.512;5.494;2023-07-28T07:48:54;7.90;;;7.07;;
13807;SDS011;40769;51.512;5.494;2023-07-28T07:51:20;7.35;;;6.65;;
13807;SDS011;40769;51.512;5.494;2023-07-28T07:53:46;7.28;;;6.63;;
13807;SDS011;40769;51.512;5.494;2023-07-28T07:56:11;7.53;;;6.82;;
13807;SDS011;40769;51.512;5.494;2023-07-28T07:58:37;7.78;;;7.00;;
13807;SDS011;40769;51.512;5.494;2023-07-28T08:01:03;6.90;;;6.28;;
13807;SDS011;40769;51.512;5.494;2023-07-28T08:03:29;6.72;;;6.07;;
13807;SDS011;40769;51.512;5.494;2023-07-28T08:05:57;6.63;;;6.03;;
13807;SDS011;40769;51.512;5.494;2023-07-28T08:08:23;7.07;;;6.45;;
13807;SDS011;40769;51.512;5.494;2023-07-28T08:10:49;5.97;;;5.47;;
13807;SDS011;40769;51.512;5.494;2023-07-28T08:13:15;7.10;;;6.50;;
13807;SDS011;40769;51.512;5.494;2023-07-28T08:15:44;8.50;;;6.38;;
13807;SDS011;40769;51.512;5.494;2023-07-28T08:18:11;6.40;;;5.90;;
13807;SDS011;40769;51.512;5.494;2023-07-28T08:20:40;6.25;;;5.65;;
13807;SDS011;40769;51.512;5.494;2023-07-28T08:23:06;6.28;;;5.78;;
13807;SDS011;40769;51.512;5.494;2023-07-28T08:25:32;6.07;;;5.55;;
13807;SDS011;40769;51.512;5.494;2023-07-28T08:27:59;5.10;;;4.70;;
13807;SDS011;40769;51.512;5.494;2023-07-28T08:30:25;5.72;;;5.32;;
13807;SDS011;40769;51.512;5.494;2023-07-28T08:32:51;5.82;;;5.22;;
13807;SDS011;40769;51.512;5.494;2023-07-28T08:35:17;5.25;;;4.85;;
13807;SDS011;40769;51.512;5.494;2023-07-28T08:37:43;5.20;;;4.80;;
13807;SDS011;40769;51.512;5.494;2023-07-28T08:40:09;5.80;;;5.20;;
13807;SDS011;40769;51.512;5.494;2023-07-28T08:42:36;5.45;;;5.05;;
13807;SDS011;40769;51.512;5.494;2023-07-28T08:45:04;4.47;;;4.18;;
13807;SDS011;40769;51.512;5.494;2023-07-28T08:47:30;5.85;;;5.35;;
13807;SDS011;40769;51.512;5.494;2023-07-28T08:49:57;5.70;;;5.30;;
13807;SDS011;40769;51.512;5.494;2023-07-28T08:52:22;5.70;;;5.30;;
13807;SDS011;40769;51.512;5.494;2023-07-28T08:54:49;4.75;;;4.45;;
13807;SDS011;40769;51.512;5.494;2023-07-28T08:57:15;4.60;;;4.30;;
13807;SDS011;40769;51.512;5.494;2023-07-28T08:59:40;4.20;;;3.90;;
13807;SDS011;40769;51.512;5.494;2023-07-28T09:02:12;4.13;;;3.83;;
13807;SDS011;40769;51.512;5.494;2023-07-28T09:04:41;4.53;;;4.22;;
13807;SDS011;40769;51.512;5.494;2023-07-28T09:07:07;4.78;;;4.40;;
13807;SDS011;40769;51.512;5.494;2023-07-28T09:09:33;4.68;;;4.20;;
13807;SDS011;40769;51.512;5.494;2023-07-28T09:12:00;3.92;;;3.63;;
13807;SDS011;40769;51.512;5.494;2023-07-28T09:14:26;5.50;;;5.00;;
13807;SDS011;40769;51.512;5.494;2023-07-28T09:16:52;4.78;;;4.38;;
13807;SDS011;40769;51.512;5.494;2023-07-28T09:19:19;4.63;;;4.22;;
13807;SDS011;40769;51.512;5.494;2023-07-28T09:21:47;4.88;;;4.47;;
13807;SDS011;40769;51.512;5.494;2023-07-28T09:24:30;4.53;;;4.13;;
13807;SDS011;40769;51.512;5.494;2023-07-28T09:26:57;4.78;;;4.38;;
13807;SDS011;40769;51.512;5.494;2023-07-28T09:29:24;4.45;;;3.88;;
13807;SDS011;40769;51.512;5.494;2023-07-28T09:31:53;4.90;;;4.50;;
13807;SDS011;40769;51.512;5.494;2023-07-28T09:34:28;4.47;;;4.07;;
13807;SDS011;40769;51.512;5.494;2023-07-28T09:36:54;3.92;;;3.63;;
13807;SDS011;40769;51.512;5.494;2023-07-28T09:39:21;4.55;;;4.25;;
13807;SDS011;40769;51.512;5.494;2023-07-28T09:41:51;4.20;;;3.80;;
13807;SDS011;40769;51.512;5.494;2023-07-28T09:44:17;4.35;;;4.05;;
13807;SDS011;40769;51.512;5.494;2023-07-28T09:46:50;4.55;;;4.25;;
13807;SDS011;40769;51.512;5.494;2023-07-28T09:49:21;4.40;;;4.10;;
13807;SDS011;40769;51.512;5.494;2023-07-28T09:51:58;4.00;;;3.60;;
13807;SDS011;40769;51.512;5.494;2023-07-28T09:54:29;3.50;;;3.22;;
13807;SDS011;40769;51.512;5.494;2023-07-28T09:56:58;3.40;;;3.20;;
13807;SDS011;40769;51.512;5.494;2023-07-28T09:59:28;3.13;;;2.92;;
13807;SDS011;40769;51.512;5.494;2023-07-28T10:01:57;3.40;;;3.10;;
13807;SDS011;40769;51.512;5.494;2023-07-28T10:04:24;3.03;;;2.65;;
13807;SDS011;40769;51.512;5.494;2023-07-28T10:06:51;2.95;;;2.30;;
13807;SDS011;40769;51.512;5.494;2023-07-28T10:09:24;2.92;;;2.72;;
13807;SDS011;40769;51.512;5.494;2023-07-28T10:11:51;2.72;;;2.53;;
13807;SDS011;40769;51.512;5.494;2023-07-28T10:14:30;2.67;;;2.42;;
13807;SDS011;40769;51.512;5.494;2023-07-28T10:17:00;3.17;;;2.88;;
13807;SDS011;40769;51.512;5.494;2023-07-28T10:19:29;2.88;;;2.67;;
13807;SDS011;40769;51.512;5.494;2023-07-28T10:22:06;3.00;;;2.80;;
13807;SDS011;40769;51.512;5.494;2023-07-28T10:27:28;2.90;;;2.70;;
13807;SDS011;40769;51.512;5.494;2023-07-28T10:30:05;2.70;;;2.50;;
13807;SDS011;40769;51.512;5.494;2023-07-28T10:32:37;2.70;;;2.50;;
13807;SDS011;40769;51.512;5.494;2023-07-28T10:37:45;3.00;;;2.80;;
13807;SDS011;40769;51.512;5.494;2023-07-28T10:43:00;3.33;;;3.13;;
13807;SDS011;40769;51.512;5.494;2023-07-28T10:45:27;3.35;;;3.05;;
13807;SDS011;40769;51.512;5.494;2023-07-28T10:47:56;2.80;;;2.60;;
13807;SDS011;40769;51.512;5.494;2023-07-28T10:50:25;2.90;;;2.70;;
13807;SDS011;40769;51.512;5.494;2023-07-28T10:52:55;2.90;;;2.70;;
13807;SDS011;40769;51.512;5.494;2023-07-28T10:55:22;2.60;;;2.35;;
13807;SDS011;40769;51.512;5.494;2023-07-28T10:57:49;2.10;;;2.00;;
13807;SDS011;40769;51.512;5.494;2023-07-28T11:00:17;2.38;;;2.17;;
13807;SDS011;40769;51.512;5.494;2023-07-28T11:05:18;1.80;;;1.70;;
13807;SDS011;40769;51.512;5.494;2023-07-28T11:07:45;2.40;;;1.73;;
13807;SDS011;40769;51.512;5.494;2023-07-28T11:10:12;1.88;;;1.77;;
13807;SDS011;40769;51.512;5.494;2023-07-28T11:12:45;1.95;;;1.85;;
13807;SDS011;40769;51.512;5.494;2023-07-28T11:15:12;1.60;;;1.50;;
13807;SDS011;40769;51.512;5.494;2023-07-28T11:17:46;1.73;;;1.63;;
13807;SDS011;40769;51.512;5.494;2023-07-28T11:20:26;1.45;;;1.38;;
13807;SDS011;40769;51.512;5.494;2023-07-28T11:25:22;1.60;;;1.40;;
13807;SDS011;40769;51.512;5.494;2023-07-28T11:27:49;1.80;;;1.25;;
13807;SDS011;40769;51.512;5.494;2023-07-28T11:30:16;1.58;;;1.48;;
13807;SDS011;40769;51.512;5.494;2023-07-28T11:32:44;1.55;;;1.13;;
13807;SDS011;40769;51.512;5.494;2023-07-28T11:35:14;1.42;;;1.33;;
13807;SDS011;40769;51.512;5.494;2023-07-28T11:37:42;1.23;;;1.15;;
13807;SDS011;40769;51.512;5.494;2023-07-28T11:40:09;1.35;;;1.25;;
13807;SDS011;40769;51.512;5.494;2023-07-28T11:42:49;1.80;;;1.55;;
13807;SDS011;40769;51.512;5.494;2023-07-28T11:45:17;1.63;;;1.10;;
13807;SDS011;40769;51.512;5.494;2023-07-28T11:50:30;1.23;;;1.00;;
13807;SDS011;40769;51.512;5.494;2023-07-28T11:53:03;2.58;;;1.20;;
13807;SDS011;40769;51.512;5.494;2023-07-28T11:55:30;1.30;;;1.20;;
13807;SDS011;40769;51.512;5.494;2023-07-28T11:57:55;1.92;;;1.17;;
13807;SDS011;40769;51.512;5.494;2023-07-28T12:00:28;1.42;;;1.30;;
13807;SDS011;40769;51.512;5.494;2023-07-28T12:03:01;1.48;;;1.38;;
13807;SDS011;40769;51.512;5.494;2023-07-28T12:05:34;1.45;;;1.33;;
13807;SDS011;40769;51.512;5.494;2023-07-28T12:08:00;1.60;;;1.50;;
13807;SDS011;40769;51.512;5.494;2023-07-28T12:10:29;1.35;;;1.25;;
13807;SDS011;40769;51.512;5.494;2023-07-28T12:12:56;1.40;;;1.30;;
13807;SDS011;40769;51.512;5.494;2023-07-28T12:15:28;1.30;;;1.20;;
13807;SDS011;40769;51.512;5.494;2023-07-28T12:18:06;1.40;;;1.30;;
13807;SDS011;40769;51.512;5.494;2023-07-28T12:20:43;1.00;;;0.90;;
13807;SDS011;40769;51.512;5.494;2023-07-28T12:23:22;0.93;;;0.93;;
13807;SDS011;40769;51.512;5.494;2023-07-28T12:25:48;1.27;;;1.17;;
13807;SDS011;40769;51.512;5.494;2023-07-28T12:28:15;1.48;;;1.00;;
13807;SDS011;40769;51.512;5.494;2023-07-28T12:30:41;1.30;;;1.05;;
13807;SDS011;40769;51.512;5.494;2023-07-28T12:33:08;1.25;;;1.10;;
13807;SDS011;40769;51.512;5.494;2023-07-28T12:35:34;1.38;;;0.93;;
13807;SDS011;40769;51.512;5.494;2023-07-28T12:38:03;1.10;;;1.00;;
13807;SDS011;40769;51.512;5.494;2023-07-28T12:40:30;1.02;;;0.93;;
13807;SDS011;40769;51.512;5.494;2023-07-28T12:42:57;1.10;;;1.00;;
13807;SDS011;40769;51.512;5.494;2023-07-28T12:45:23;0.95;;;0.95;;
13807;SDS011;40769;51.512;5.494;2023-07-28T12:47:51;1.20;;;1.10;;
13807;SDS011;40769;51.512;5.494;2023-07-28T12:50:18;1.00;;;0.90;;
13807;SDS011;40769;51.512;5.494;2023-07-28T12:52:44;1.15;;;1.05;;
13807;SDS011;40769;51.512;5.494;2023-07-28T12:55:09;1.05;;;1.05;;
13807;SDS011;40769;51.512;5.494;2023-07-28T12:57:35;0.98;;;0.88;;
13807;SDS011;40769;51.512;5.494;2023-07-28T13:00:01;1.83;;;1.60;;
13807;SDS011;40769;51.512;5.494;2023-07-28T13:02:32;2.42;;;1.25;;
13807;SDS011;40769;51.512;5.494;2023-07-28T13:04:57;1.83;;;1.08;;
13807;SDS011;40769;51.512;5.494;2023-07-28T13:07:23;1.10;;;1.00;;
13807;SDS011;40769;51.512;5.494;2023-07-28T13:09:49;0.90;;;0.90;;
13807;SDS011;40769;51.512;5.494;2023-07-28T13:12:14;1.48;;;0.93;;
13807;SDS011;40769;51.512;5.494;2023-07-28T13:14:40;0.93;;;0.82;;
13807;SDS011;40769;51.512;5.494;2023-07-28T13:17:05;1.15;;;0.90;;
13807;SDS011;40769;51.512;5.494;2023-07-28T13:19:31;1.00;;;0.90;;
13807;SDS011;40769;51.512;5.494;2023-07-28T13:21:57;1.00;;;0.90;;
13807;SDS011;40769;51.512;5.494;2023-07-28T13:24:23;0.82;;;0.80;;
13807;SDS011;40769;51.512;5.494;2023-07-28T13:26:48;0.88;;;0.80;;
13807;SDS011;40769;51.512;5.494;2023-07-28T13:29:14;1.02;;;0.93;;
13807;SDS011;40769;51.512;5.494;2023-07-28T13:31:40;0.70;;;0.70;;
13807;SDS011;40769;51.512;5.494;2023-07-28T13:34:05;1.08;;;0.98;;
13807;SDS011;40769;51.512;5.494;2023-07-28T13:36:32;1.20;;;0.98;;
13807;SDS011;40769;51.512;5.494;2023-07-28T13:38:58;1.23;;;0.80;;
13807;SDS011;40769;51.512;5.494;2023-07-28T13:41:23;0.85;;;0.82;;
13807;SDS011;40769;51.512;5.494;2023-07-28T13:43:49;1.13;;;1.10;;
13807;SDS011;40769;51.512;5.494;2023-07-28T13:46:14;1.55;;;0.80;;
13807;SDS011;40769;51.512;5.494;2023-07-28T13:48:40;1.67;;;0.90;;
13807;SDS011;40769;51.512;5.494;2023-07-28T13:51:06;0.82;;;0.80;;
13807;SDS011;40769;51.512;5.494;2023-07-28T13:53:32;1.10;;;1.00;;
13807;SDS011;40769;51.512;5.494;2023-07-28T13:55:57;1.08;;;1.00;;
13807;SDS011;40769;51.512;5.494;2023-07-28T13:58:23;1.27;;;0.80;;
13807;SDS011;40769;51.512;5.494;2023-07-28T14:00:49;0.80;;;0.80;;
13807;SDS011;40769;51.512;5.494;2023-07-28T14:03:15;1.63;;;1.00;;
13807;SDS011;40769;51.512;5.494;2023-07-28T14:05:41;1.38;;;0.90;;
13807;SDS011;40769;51.512;5.494;2023-07-28T14:08:07;1.52;;;0.90;;
13807;SDS011;40769;51.512;5.494;2023-07-28T14:10:32;1.20;;;1.10;;
13807;SDS011;40769;51.512;5.494;2023-07-28T14:12:58;1.02;;;0.93;;
13807;SDS011;40769;51.512;5.494;2023-07-28T14:15:24;1.27;;;1.10;;
13807;SDS011;40769;51.512;5.494;2023-07-28T14:17:50;0.90;;;0.90;;
13807;SDS011;40769;51.512;5.494;2023-07-28T14:20:16;1.75;;;0.80;;
13807;SDS011;40769;51.512;5.494;2023-07-28T14:22:45;1.23;;;1.00;;
13807;SDS011;40769;51.512;5.494;2023-07-28T14:25:10;1.15;;;1.00;;
13807;SDS011;40769;51.512;5.494;2023-07-28T14:27:36;1.38;;;0.70;;
13807;SDS011;40769;51.512;5.494;2023-07-28T14:30:01;1.58;;;1.00;;
13807;SDS011;40769;51.512;5.494;2023-07-28T14:32:27;1.20;;;1.00;;
13807;SDS011;40769;51.512;5.494;2023-07-28T14:34:53;1.08;;;0.98;;
13807;SDS011;40769;51.512;5.494;2023-07-28T14:37:19;0.90;;;0.90;;
13807;SDS011;40769;51.512;5.494;2023-07-28T14:39:45;1.00;;;0.88;;
13807;SDS011;40769;51.512;5.494;2023-07-28T14:42:11;1.15;;;1.00;;
13807;SDS011;40769;51.512;5.494;2023-07-28T14:44:37;1.15;;;1.05;;
13807;SDS011;40769;51.512;5.494;2023-07-28T14:47:02;1.20;;;1.10;;
13807;SDS011;40769;51.512;5.494;2023-07-28T14:49:28;1.02;;;0.88;;
13807;SDS011;40769;51.512;5.494;2023-07-28T14:51:54;1.30;;;1.00;;
13807;SDS011;40769;51.512;5.494;2023-07-28T14:54:20;1.98;;;1.25;;
13807;SDS011;40769;51.512;5.494;2023-07-28T14:56:45;1.23;;;1.00;;
13807;SDS011;40769;51.512;5.494;2023-07-28T14:59:11;1.40;;;1.00;;
13807;SDS011;40769;51.512;5.494;2023-07-28T15:01:37;1.25;;;0.95;;
13807;SDS011;40769;51.512;5.494;2023-07-28T15:04:02;2.08;;;0.95;;